Time;durP1;ratioP1;P1;durP2;ratioP2;P2;SDS_P1;SDS_P2;PMS_P1;PMS_P2;Temp;Humidity;BMP_temperature;BMP_pressure;BME280_temperature;BME280_humidity;BME280_pressure;Samples;Min_cycle;Max_cycle;Signal;HPM_P1;HPM_P2
2022/07/26 00:01:15;;;;;;;;;;;;;;;19.43;69.84;95040.97;5075597;28;1087;-50
2022/07/26 00:03:41;;;;;;;;;;;;;;;19.35;70.24;95033.13;5074896;28;1843;-50
2022/07/26 00:06:07;;;;;;;;;;;;;;;19.21;70.25;95037.78;5075231;28;1083;-50
2022/07/26 00:08:33;;;;;;;;;;;;;;;19.00;71.16;95028.09;5075626;28;1000;-50
2022/07/26 00:10:59;;;;;;;;;;;;;;;18.78;72.10;95032.97;5075690;28;1053;-50
2022/07/26 00:13:25;;;;;;;;;;;;;;;18.85;72.21;95027.53;5075286;28;1002;-50
2022/07/26 00:15:52;;;;;;;;;;;;;;;18.94;71.87;95031.69;5075414;28;1995;-50
2022/07/26 00:18:18;;;;;;;;;;;;;;;19.05;71.46;95027.47;5075263;28;968;-50
2022/07/26 00:20:46;;;;;;;;;;;;;;;19.11;70.75;95026.59;5075021;28;1096;-50
2022/07/26 00:23:13;;;;;;;;;;;;;;;19.21;70.57;95029.63;5075392;28;962;-50
2022/07/26 00:25:39;;;;;;;;;;;;;;;19.10;70.79;95031.19;5075051;28;1029;-50
2022/07/26 00:28:05;;;;;;;;;;;;;;;19.08;71.21;95030.56;5075112;28;1021;-50
2022/07/26 00:30:32;;;;;;;;;;;;;;;19.21;70.12;95029.63;5075062;28;1199;-50
2022/07/26 00:32:57;;;;;;;;;;;;;;;19.31;69.53;95024.59;5075120;28;1016;-50
2022/07/26 00:35:23;;;;;;;;;;;;;;;19.31;69.71;95027.31;5074469;28;2000;-50
2022/07/26 00:37:49;;;;;;;;;;;;;;;19.28;70.00;95021.47;5075227;28;949;-50
2022/07/26 00:40:16;;;;;;;;;;;;;;;19.21;70.40;95015.25;5074701;28;1029;-50
2022/07/26 00:42:42;;;;;;;;;;;;;;;19.14;70.64;95009.88;5077140;28;1162;-50
2022/07/26 00:45:09;;;;;;;;;;;;;;;18.80;71.41;95017.38;5094947;28;958;-50
2022/07/26 00:47:36;;;;;;;;;;;;;;;18.83;71.42;95016.91;5095051;28;1056;-50
2022/07/26 00:50:03;;;;;;;;;;;;;;;18.88;71.47;95025.25;5094653;28;1035;-50
2022/07/26 00:52:29;;;;;;;;;;;;;;;18.75;71.64;95019.03;5095331;28;974;-50
2022/07/26 00:54:55;;;;;;;;;;;;;;;18.51;72.68;95011.38;5094624;28;1992;-50
2022/07/26 00:57:21;;;;;;;;;;;;;;;18.63;72.24;95010.72;5094897;28;1097;-50
2022/07/26 00:59:48;;;;;;;;;;;;;;;18.62;72.16;95023.44;5094709;28;1045;-50
2022/07/26 01:02:14;;;;;;;;;;;;;;;18.63;72.24;95018.84;5094745;28;1013;-50
2022/07/26 01:04:41;;;;;;;;;;;;;;;18.33;73.16;95019.38;5094244;28;1024;-50
2022/07/26 01:07:07;;;;;;;;;;;;;;;18.19;74.03;95015.03;5094796;28;1053;-50
2022/07/26 01:09:33;;;;;;;;;;;;;;;18.14;73.99;95012.97;5094652;28;1068;-50
2022/07/26 01:11:59;;;;;;;;;;;;;;;18.32;73.32;95023.13;5094706;28;966;-50
2022/07/26 01:14:26;;;;;;;;;;;;;;;18.51;72.54;95032.22;5093833;28;1918;-50
2022/07/26 01:16:51;;;;;;;;;;;;;;;18.39;73.11;95026.66;5094150;28;1004;-50
2022/07/26 01:19:18;;;;;;;;;;;;;;;18.34;72.75;95034.56;5094241;28;1019;-50
2022/07/26 01:21:44;;;;;;;;;;;;;;;18.27;73.26;95025.66;5094163;28;1092;-50
2022/07/26 01:24:10;;;;;;;;;;;;;;;18.30;73.01;95022.50;5094394;28;1000;-50
2022/07/26 01:26:36;;;;;;;;;;;;;;;18.49;72.39;95027.03;5094118;28;1190;-50
2022/07/26 01:29:03;;;;;;;;;;;;;;;18.21;73.71;95021.06;5094275;28;1040;-50
2022/07/26 01:31:29;;;;;;;;;;;;;;;18.04;74.44;95026.09;5094057;28;1866;-50
2022/07/26 01:33:55;;;;;;;;;;;;;;;18.17;73.93;95025.25;5094074;28;1221;-50
2022/07/26 01:36:21;;;;;;;;;;;;;;;17.92;74.57;95028.59;5093814;28;1902;-50
2022/07/26 01:38:47;;;;;;;;;;;;;;;17.89;74.97;95027.16;5094250;28;966;-50
2022/07/26 01:41:13;;;;;;;;;;;;;;;17.86;75.13;95026.75;5093785;28;1091;-50
2022/07/26 01:43:40;;;;;;;;;;;;;;;18.04;73.91;95028.78;5083569;28;1162;-50
2022/07/26 01:46:06;;;;;;;;;;;;;;;18.02;74.24;95022.78;5073507;28;965;-50
2022/07/26 01:48:33;;;;;;;;;;;;;;;17.96;74.52;95029.84;5073608;28;1087;-50
2022/07/26 01:50:59;;;;;;;;;;;;;;;18.01;74.56;95029.25;5073696;28;972;-50
2022/07/26 01:53:25;;;;;;;;;;;;;;;17.78;75.14;95025.06;5073776;28;1060;-50
2022/07/26 01:55:51;;;;;;;;;;;;;;;17.55;75.76;95026.31;5073426;28;1983;-50
2022/07/26 01:58:17;;;;;;;;;;;;;;;17.49;76.54;95029.84;5073553;28;1060;-50
2022/07/26 02:00:43;;;;;;;;;;;;;;;17.45;76.67;95033.97;5073306;28;1084;-50
2022/07/26 02:03:09;;;;;;;;;;;;;;;17.31;76.91;95027.72;5073357;28;1021;-50
2022/07/26 02:05:35;;;;;;;;;;;;;;;17.46;76.04;95030.25;5073030;28;1044;-50
2022/07/26 02:08:01;;;;;;;;;;;;;;;17.62;75.56;95026.28;5073520;28;1045;-50
2022/07/26 02:13:12;;;;;;;;;;;;;;;17.67;74.98;95034.63;5073353;28;1016;-50
2022/07/26 02:15:39;;;;;;;;;;;;;;;17.52;75.83;95039.41;5073064;28;1981;-50
2022/07/26 02:18:05;;;;;;;;;;;;;;;17.49;75.78;95035.25;5073203;28;1021;-50
2022/07/26 02:20:32;;;;;;;;;;;;;;;17.65;75.41;95034.00;5073172;28;1088;-50
2022/07/26 02:23:00;;;;;;;;;;;;;;;17.61;75.40;95027.34;5073480;28;981;-49
2022/07/26 02:25:26;;;;;;;;;;;;;;;17.80;74.39;95024.88;5073236;28;1044;-50
2022/07/26 02:27:52;;;;;;;;;;;;;;;17.90;74.04;95028.81;5072931;28;1033;-50
2022/07/26 02:30:18;;;;;;;;;;;;;;;17.56;75.23;95033.38;5073091;28;1016;-50
2022/07/26 02:32:44;;;;;;;;;;;;;;;17.24;76.42;95037.69;5073259;28;978;-50
2022/07/26 02:35:10;;;;;;;;;;;;;;;17.05;77.25;95041.19;5072843;28;1906;-50
2022/07/26 02:37:36;;;;;;;;;;;;;;;17.01;77.77;95037.25;5073076;28;1034;-50
2022/07/26 02:40:02;;;;;;;;;;;;;;;17.29;76.33;95035.22;5073053;28;1045;-50
2022/07/26 02:42:28;;;;;;;;;;;;;;;17.35;75.98;95037.09;5073277;28;1215;-49
2022/07/26 02:44:54;;;;;;;;;;;;;;;17.07;77.11;95039.94;5093215;28;970;-50
2022/07/26 02:47:20;;;;;;;;;;;;;;;16.85;77.93;95035.75;5093241;28;996;-50
2022/07/26 02:49:46;;;;;;;;;;;;;;;16.83;78.37;95041.34;5093216;28;1866;-50
2022/07/26 02:52:12;;;;;;;;;;;;;;;16.96;77.28;95038.69;5093119;28;974;-50
2022/07/26 02:54:38;;;;;;;;;;;;;;;17.07;76.85;95047.22;5093206;28;1991;-50
2022/07/26 02:57:04;;;;;;;;;;;;;;;16.95;77.27;95042.41;5092951;28;1014;-50
2022/07/26 02:59:30;;;;;;;;;;;;;;;16.80;78.22;95049.81;5093121;28;1021;-51
2022/07/26 03:01:57;;;;;;;;;;;;;;;16.77;78.16;95052.94;5092862;28;1202;-51
2022/07/26 03:04:23;;;;;;;;;;;;;;;16.92;77.57;95056.34;5092795;28;1043;-50
2022/07/26 03:06:49;;;;;;;;;;;;;;;17.04;77.24;95058.47;5093067;28;1041;-50
2022/07/26 03:09:15;;;;;;;;;;;;;;;16.98;77.14;95057.41;5093080;28;974;-50
2022/07/26 03:11:41;;;;;;;;;;;;;;;16.95;77.60;95060.50;5092853;28;1032;-50
2022/07/26 03:14:07;;;;;;;;;;;;;;;17.07;76.90;95055.31;5092844;28;1991;-50
2022/07/26 03:16:33;;;;;;;;;;;;;;;17.13;76.65;95060.75;5092770;28;1975;-50
2022/07/26 03:19:00;;;;;;;;;;;;;;;17.01;76.93;95053.44;5092978;28;1040;-50
2022/07/26 03:21:27;;;;;;;;;;;;;;;16.79;77.84;95059.78;5092701;28;1116;-50
2022/07/26 03:23:53;;;;;;;;;;;;;;;16.85;77.90;95066.28;5092888;28;1927;-50
2022/07/26 03:26:19;;;;;;;;;;;;;;;17.02;77.29;95066.75;5092674;28;950;-49
2022/07/26 03:28:46;;;;;;;;;;;;;;;17.10;77.01;95063.03;5092856;28;1072;-50
2022/07/26 03:31:12;;;;;;;;;;;;;;;17.00;77.53;95062.56;5092650;28;1041;-51
2022/07/26 03:33:38;;;;;;;;;;;;;;;16.90;78.00;95058.41;5092678;28;1029;-49
2022/07/26 03:36:05;;;;;;;;;;;;;;;16.98;77.77;95060.09;5092571;28;2017;-50
2022/07/26 03:38:31;;;;;;;;;;;;;;;16.96;78.10;95063.00;5093804;28;1157;-50
2022/07/26 03:40:57;;;;;;;;;;;;;;;17.06;77.31;95067.19;5096414;28;958;-49
2022/07/26 03:43:23;;;;;;;;;;;;;;;17.24;76.88;95064.72;5087899;28;1201;-50
2022/07/26 03:45:50;;;;;;;;;;;;;;;17.08;77.96;95073.22;5076229;28;1061;-50
2022/07/26 03:48:16;;;;;;;;;;;;;;;16.91;78.91;95072.75;5075938;28;1152;-50
2022/07/26 03:50:42;;;;;;;;;;;;;;;16.82;79.42;95066.66;5076037;28;1052;-49
2022/07/26 03:53:08;;;;;;;;;;;;;;;17.06;78.19;95065.31;5075740;28;1198;-49
2022/07/26 03:58:19;;;;;;;;;;;;;;;17.56;76.72;95078.50;5075561;28;1013;-49
2022/07/26 04:00:45;;;;;;;;;;;;;;;17.48;77.12;95074.13;5075900;28;1045;-49
2022/07/26 04:03:11;;;;;;;;;;;;;;;17.41;77.42;95075.97;5075443;28;1100;-50
2022/07/26 04:05:37;;;;;;;;;;;;;;;17.68;76.67;95073.28;5075556;28;1005;-50
2022/07/26 04:08:03;;;;;;;;;;;;;;;17.84;76.16;95069.38;5057722;28;1035;-50
2022/07/26 04:10:29;;;;;;;;;;;;;;;17.92;76.15;95066.47;5075544;28;973;-50
2022/07/26 04:12:55;;;;;;;;;;;;;;;17.89;76.62;95061.47;5075202;28;958;-50
2022/07/26 04:15:21;;;;;;;;;;;;;;;17.87;76.72;95061.72;5075289;28;2008;-50
2022/07/26 04:17:47;;;;;;;;;;;;;;;17.95;77.33;95068.78;5075417;28;961;-50
2022/07/26 04:20:14;;;;;;;;;;;;;;;18.03;76.93;95062.31;5075097;28;1092;-50
2022/07/26 04:22:40;;;;;;;;;;;;;;;18.08;76.81;95054.38;5075155;28;1154;-50
2022/07/26 04:25:07;;;;;;;;;;;;;;;18.43;75.71;95065.78;5075224;28;1060;-50
2022/07/26 04:27:34;;;;;;;;;;;;;;;18.73;75.25;95059.88;5074984;28;1044;-50
2022/07/26 04:30:00;;;;;;;;;;;;;;;18.96;73.50;95062.09;5075340;28;966;-50
2022/07/26 04:32:26;;;;;;;;;;;;;;;19.18;72.84;95064.47;5075183;28;1036;-50
2022/07/26 04:34:52;;;;;;;;;;;;;;;19.17;73.76;95058.22;5074916;28;1902;-50
2022/07/26 04:37:18;;;;;;;;;;;;;;;18.87;75.82;95058.78;5074869;28;1029;-49
2022/07/26 04:39:44;;;;;;;;;;;;;;;18.85;76.28;95058.16;5075002;28;1009;-50
2022/07/26 04:42:10;;;;;;;;;;;;;;;19.03;75.26;95057.47;5074851;28;1074;-50
2022/07/26 04:44:37;;;;;;;;;;;;;;;19.40;73.42;95057.66;5092894;28;1155;-50
2022/07/26 04:47:03;;;;;;;;;;;;;;;19.83;71.30;95061.59;5095180;28;1011;-50
2022/07/26 04:49:29;;;;;;;;;;;;;;;20.19;69.34;95068.16;5094704;28;1079;-50
2022/07/26 04:51:55;;;;;;;;;;;;;;;20.33;67.32;95063.44;5095092;28;1024;-50
2022/07/26 04:54:21;;;;;;;;;;;;;;;20.38;68.55;95067.13;5094606;28;1902;-50
2022/07/26 04:56:48;;;;;;;;;;;;;;;20.46;67.69;95055.97;5094853;28;1026;-50
2022/07/26 04:59:15;;;;;;;;;;;;;;;20.54;68.60;95060.28;5094556;28;1135;-50
2022/07/26 05:01:41;;;;;;;;;;;;;;;20.63;67.61;95055.41;5094657;28;1049;-50
2022/07/26 05:04:07;;;;;;;;;;;;;;;20.93;67.22;95058.19;5094275;28;1036;-50
2022/07/26 05:06:33;;;;;;;;;;;;;;;20.98;66.49;95060.22;5094802;28;1017;-50
2022/07/26 05:08:59;;;;;;;;;;;;;;;21.08;67.14;95063.25;5094514;28;988;-50
2022/07/26 05:11:25;;;;;;;;;;;;;;;21.20;67.54;95061.41;5094519;28;1016;-50
2022/07/26 05:13:51;;;;;;;;;;;;;;;21.51;66.02;95061.44;5094623;28;1084;-49
2022/07/26 05:16:17;;;;;;;;;;;;;;;21.96;65.09;95050.88;5094607;28;1898;-50
2022/07/26 05:18:43;;;;;;;;;;;;;;;22.74;61.15;95058.97;5094456;28;970;-50
2022/07/26 05:21:10;;;;;;;;;;;;;;;23.63;58.96;95060.47;5094294;28;1209;-50
2022/07/26 05:23:35;;;;;;;;;;;;;;;23.70;58.32;95063.88;5094241;28;976;-50
2022/07/26 05:26:02;;;;;;;;;;;;;;;23.19;58.99;95059.09;5076167;28;1008;-50
2022/07/26 05:28:28;;;;;;;;;;;;;;;22.78;60.89;95057.41;5094340;28;977;-48
2022/07/26 05:30:54;;;;;;;;;;;;;;;22.83;61.04;95057.53;5094399;28;978;-48
2022/07/26 05:33:20;;;;;;;;;;;;;;;23.10;60.78;95060.56;5094089;28;1088;-48
2022/07/26 05:35:46;;;;;;;;;;;;;;;23.02;60.53;95054.66;5093979;28;1991;-48
2022/07/26 05:38:12;;;;;;;;;;;;;;;22.83;60.72;95062.16;5093866;28;1028;-47
2022/07/26 05:40:38;;;;;;;;;;;;;;;22.77;61.01;95053.03;5093894;28;1018;-47
2022/07/26 05:43:04;;;;;;;;;;;;;;;23.49;60.03;95055.31;5088660;28;1202;-47
2022/07/26 05:45:30;;;;;;;;;;;;;;;24.50;55.42;95053.75;5073707;28;1012;-47
2022/07/26 05:47:56;;;;;;;;;;;;;;;25.00;54.68;95055.53;5073865;28;1008;-47
2022/07/26 05:50:22;;;;;;;;;;;;;;;24.73;54.91;95059.00;5073441;28;1040;-47
2022/07/26 05:52:48;;;;;;;;;;;;;;;24.50;55.88;95056.47;5073640;28;1108;-47
2022/07/26 05:55:14;;;;;;;;;;;;;;;25.11;55.37;95054.59;5073193;28;1914;-47
2022/07/26 05:57:40;;;;;;;;;;;;;;;25.45;53.28;95051.72;5073840;28;1053;-47
2022/07/26 06:00:08;;;;;;;;;;;;;;;25.23;54.10;95045.44;5073459;28;1045;-47
2022/07/26 06:02:34;;;;;;;;;;;;;;;24.84;56.00;95040.03;5073322;28;1032;-47
2022/07/26 06:05:00;;;;;;;;;;;;;;;24.47;57.53;95043.31;5073127;28;1018;-47
2022/07/26 06:07:26;;;;;;;;;;;;;;;24.23;57.95;95038.03;5073568;28;1040;-47
2022/07/26 06:09:52;;;;;;;;;;;;;;;24.08;59.03;95046.81;5073242;28;970;-46
2022/07/26 06:12:18;;;;;;;;;;;;;;;23.99;59.39;95039.28;5073563;28;1003;-47
2022/07/26 06:14:44;;;;;;;;;;;;;;;24.02;58.38;95036.03;5073331;28;1901;-47
2022/07/26 06:17:10;;;;;;;;;;;;;;;24.04;59.80;95036.66;5073426;28;970;-47
2022/07/26 06:19:36;;;;;;;;;;;;;;;24.14;59.33;95037.63;5073380;28;1023;-47
2022/07/26 06:22:02;;;;;;;;;;;;;;;24.09;58.75;95039.44;5073136;28;1127;-47
2022/07/26 06:24:29;;;;;;;;;;;;;;;24.16;59.06;95027.28;5073015;28;1092;-47
2022/07/26 06:26:56;;;;;;;;;;;;;;;24.38;59.26;95031.16;5073461;28;1023;-47
2022/07/26 06:29:22;;;;;;;;;;;;;;;24.46;57.72;95033.47;5073016;28;1185;-47
2022/07/26 06:31:48;;;;;;;;;;;;;;;24.55;58.96;95032.00;5073482;28;1033;-47
2022/07/26 06:34:14;;;;;;;;;;;;;;;24.80;57.15;95026.03;5072953;28;1996;-47
2022/07/26 06:36:40;;;;;;;;;;;;;;;25.09;57.62;95025.84;5073052;28;990;-47
2022/07/26 06:39:06;;;;;;;;;;;;;;;25.31;57.06;95023.13;5072992;28;1020;-47
2022/07/26 06:41:32;;;;;;;;;;;;;;;25.41;56.37;95027.88;5073168;28;947;-47
2022/07/26 06:43:58;;;;;;;;;;;;;;;25.38;56.64;95023.72;5086162;28;1222;-47
2022/07/26 06:46:25;;;;;;;;;;;;;;;25.36;56.45;95022.34;5093238;28;1047;-47
2022/07/26 06:48:51;;;;;;;;;;;;;;;25.48;55.69;95023.03;5075430;28;1580;-47
2022/07/26 06:51:17;;;;;;;;;;;;;;;25.57;55.48;95018.72;5092967;28;1075;-47
2022/07/26 06:53:43;;;;;;;;;;;;;;;25.71;55.12;95019.16;5093129;28;1965;-46
2022/07/26 06:56:09;;;;;;;;;;;;;;;25.88;55.75;95013.56;5093116;28;1906;-46
2022/07/26 06:58:35;;;;;;;;;;;;;;;25.97;54.55;95006.56;5093114;28;1021;-47
2022/07/26 07:01:01;;;;;;;;;;;;;;;26.10;53.56;95000.63;5093029;28;1013;-47
2022/07/26 07:03:27;;;;;;;;;;;;;;;26.27;53.63;95013.31;5093054;28;1020;-47
2022/07/26 07:05:53;;;;;;;;;;;;;;;26.37;53.46;95010.69;5092699;28;1024;-47
2022/07/26 07:08:21;;;;;;;;;;;;;;;26.34;53.39;95007.63;5092882;28;1123;-47
2022/07/26 07:10:47;;;;;;;;;;;;;;;26.24;54.02;95011.94;5092784;28;1996;-47
2022/07/26 07:13:13;;;;;;;;;;;;;;;26.38;54.28;95006.00;5093863;28;985;-47
2022/07/26 07:15:39;;;;;;;;;;;;;;;26.38;52.32;95006.81;5096767;28;1914;-47
2022/07/26 07:18:05;;;;;;;;;;;;;;;26.52;53.32;94998.94;5096821;28;1073;-47
2022/07/26 07:20:33;;;;;;;;;;;;;;;26.58;53.46;94997.06;5096422;28;1084;-47
2022/07/26 07:22:59;;;;;;;;;;;;;;;26.73;52.77;95002.69;5096657;28;962;-47
2022/07/26 07:25:25;;;;;;;;;;;;;;;26.82;52.94;94990.09;5096719;28;1183;-47
2022/07/26 07:27:51;;;;;;;;;;;;;;;26.88;52.31;94999.16;5096652;28;1112;-47
2022/07/26 07:30:17;;;;;;;;;;;;;;;27.04;53.38;94992.66;5078460;28;1146;-47
2022/07/26 07:32:43;;;;;;;;;;;;;;;27.11;52.76;94999.81;5096663;28;1030;-47
2022/07/26 07:35:09;;;;;;;;;;;;;;;27.16;52.16;94995.16;5096103;28;1890;-47
2022/07/26 07:37:35;;;;;;;;;;;;;;;27.31;52.12;94993.63;5096307;28;1025;-47
2022/07/26 07:40:04;;;;;;;;;;;;;;;27.46;52.21;94997.22;5078558;28;966;-47
2022/07/26 07:42:30;;;;;;;;;;;;;;;27.62;51.39;95000.81;5095808;28;1205;-47
2022/07/26 07:44:56;;;;;;;;;;;;;;;27.66;50.39;94995.63;5076044;28;1021;-47
2022/07/26 07:47:22;;;;;;;;;;;;;;;27.75;50.35;94990.38;5075710;28;1029;-47
2022/07/26 07:49:48;;;;;;;;;;;;;;;27.72;50.09;94980.78;5076032;28;965;-47
2022/07/26 07:52:14;;;;;;;;;;;;;;;27.96;50.48;94992.06;5075616;28;969;-47
2022/07/26 07:54:40;;;;;;;;;;;;;;;28.07;50.05;94990.16;5076041;28;1917;-47
2022/07/26 07:57:06;;;;;;;;;;;;;;;28.21;48.22;94977.50;5075571;28;1021;-47
2022/07/26 07:59:32;;;;;;;;;;;;;;;28.35;47.97;94980.50;5075949;28;1000;-47
2022/07/26 08:01:58;;;;;;;;;;;;;;;28.49;48.05;94978.00;5075541;28;1008;-47
2022/07/26 08:04:24;;;;;;;;;;;;;;;28.62;48.60;94977.44;5075487;28;1030;-47
2022/07/26 08:06:50;;;;;;;;;;;;;;;28.75;47.57;94973.28;5075483;28;1202;-47
2022/07/26 08:09:17;;;;;;;;;;;;;;;28.68;47.95;94963.69;5075786;28;1056;-47
2022/07/26 08:11:43;;;;;;;;;;;;;;;28.77;47.41;94964.75;5075400;28;1846;-47
2022/07/26 08:14:09;;;;;;;;;;;;;;;28.80;48.04;94961.47;5075636;28;974;-47
2022/07/26 08:16:35;;;;;;;;;;;;;;;28.84;48.62;94964.44;5075394;28;1906;-47
2022/07/26 08:19:01;;;;;;;;;;;;;;;28.84;47.45;94956.19;5075358;28;1026;-47
2022/07/26 08:21:27;;;;;;;;;;;;;;;28.77;47.72;94949.06;5075051;28;1219;-48
2022/07/26 08:23:53;;;;;;;;;;;;;;;28.88;48.32;94949.03;5074852;28;1041;-47
2022/07/26 08:26:19;;;;;;;;;;;;;;;29.06;47.92;94947.56;5074964;28;1856;-47
2022/07/26 08:28:45;;;;;;;;;;;;;;;29.34;46.95;94946.06;5075208;28;1029;-47
2022/07/26 08:31:11;;;;;;;;;;;;;;;29.47;47.13;94942.69;5074984;28;1084;-46
2022/07/26 08:33:37;;;;;;;;;;;;;;;29.58;46.41;94946.19;5075253;28;1048;-47
2022/07/26 08:36:03;;;;;;;;;;;;;;;29.67;46.74;94947.25;5074607;28;1906;-47
2022/07/26 08:38:29;;;;;;;;;;;;;;;29.67;45.87;94940.88;5075025;28;960;-47
2022/07/26 08:40:55;;;;;;;;;;;;;;;29.74;45.64;94931.22;5074887;28;1872;-47
2022/07/26 08:43:21;;;;;;;;;;;;;;;29.85;45.13;94931.16;5082461;28;1166;-47
2022/07/26 08:45:48;;;;;;;;;;;;;;;29.96;46.03;94916.19;5095173;28;988;-47
2022/07/26 08:48:14;;;;;;;;;;;;;;;29.96;45.46;94922.50;5095017;28;1023;-47
2022/07/26 08:50:40;;;;;;;;;;;;;;;30.04;44.31;94923.81;5095052;28;985;-47
2022/07/26 08:53:08;;;;;;;;;;;;;;;29.92;43.31;94917.88;5094726;28;1057;-47
2022/07/26 08:55:34;;;;;;;;;;;;;;;30.08;44.79;94916.59;5095052;28;1910;-47
2022/07/26 08:58:01;;;;;;;;;;;;;;;30.27;44.63;94915.88;5094829;28;969;-47
2022/07/26 09:00:28;;;;;;;;;;;;;;;30.40;43.81;94915.22;5094906;28;996;-47
2022/07/26 09:02:55;;;;;;;;;;;;;;;30.51;43.39;94913.16;5094565;28;1025;-47
2022/07/26 09:05:34;;;;;;;;;;;;;;;30.57;43.97;94914.75;5094448;28;1008;-47
2022/07/26 09:08:20;;;;;;;;;;;;;;;30.54;42.38;94912.56;5094693;28;1067;-47
2022/07/26 09:10:46;;;;;;;;;;;;;;;30.58;42.70;94913.63;5094816;28;976;-48
2022/07/26 09:13:11;;;;;;;;;;;;;;;30.59;42.44;94901.47;5094473;28;1040;-47
2022/07/26 09:15:38;;;;;;;;;;;;;;;30.78;41.48;94909.81;5094474;28;1993;-47
2022/07/26 09:18:04;;;;;;;;;;;;;;;30.86;41.37;94905.56;5094237;28;972;-47
2022/07/26 09:20:30;;;;;;;;;;;;;;;31.00;42.22;94905.69;5094621;28;1238;-48
2022/07/26 09:22:58;;;;;;;;;;;;;;;31.01;39.96;94901.81;5094493;28;1029;-48
2022/07/26 09:25:25;;;;;;;;;;;;;;;31.02;40.56;94901.53;5094271;28;1029;-48
2022/07/26 09:27:51;;;;;;;;;;;;;;;30.97;34.24;94903.53;5094277;28;1064;-48
2022/07/26 09:30:17;;;;;;;;;;;;;;;31.00;36.55;94897.41;5094276;28;988;-48
2022/07/26 09:32:55;;;;;;;;;;;;;;;31.04;36.70;94901.25;5094025;28;1053;-47
2022/07/26 09:35:21;;;;;;;;;;;;;;;31.06;37.97;94894.28;5093750;28;1914;-46
2022/07/26 09:37:47;;;;;;;;;;;;;;;31.14;37.74;94896.38;5093746;28;1055;-47
2022/07/26 09:40:14;;;;;;;;;;;;;;;31.13;38.96;94894.75;5094041;28;1201;-47
2022/07/26 09:42:54;;;;;;;;;;;;;;;31.18;37.75;94891.09;5091791;28;1169;-47
2022/07/26 09:45:20;;;;;;;;;;;;;;;31.24;37.86;94887.13;5073610;28;1091;-47
2022/07/26 09:47:46;;;;;;;;;;;;;;;31.32;38.18;94897.53;5073803;28;1091;-47
2022/07/26 09:50:15;;;;;;;;;;;;;;;31.37;37.89;94890.28;5073766;28;1062;-48
2022/07/26 09:53:00;;;;;;;;;;;;;;;31.37;37.08;94887.50;5073489;28;1068;-47
2022/07/26 09:55:26;;;;;;;;;;;;;;;31.29;36.09;94877.97;5073615;28;1947;-48
2022/07/26 09:57:52;;;;;;;;;;;;;;;31.44;38.42;94883.25;5055634;28;1092;-48
2022/07/26 10:00:18;;;;;;;;;;;;;;;31.55;38.72;94874.81;5073725;28;1017;-48
2022/07/26 10:02:44;;;;;;;;;;;;;;;31.58;39.00;94879.75;5073503;28;974;-48
2022/07/26 10:05:10;;;;;;;;;;;;;;;31.64;37.61;94875.78;5073376;28;977;-48
2022/07/26 10:07:37;;;;;;;;;;;;;;;31.59;37.48;94873.09;5073296;28;1009;-48
2022/07/26 10:10:06;;;;;;;;;;;;;;;31.54;37.17;94876.78;5073399;28;1000;-48
2022/07/26 10:12:32;;;;;;;;;;;;;;;31.50;37.89;94878.50;5073450;28;970;-48
2022/07/26 10:14:58;;;;;;;;;;;;;;;31.53;37.36;94869.63;5073289;28;1910;-48
2022/07/26 10:17:28;;;;;;;;;;;;;;;31.61;37.96;94860.63;5073349;28;942;-48
2022/07/26 10:19:54;;;;;;;;;;;;;;;31.67;38.59;94861.38;5073143;28;1262;-48
2022/07/26 10:22:26;;;;;;;;;;;;;;;31.67;37.49;94859.41;5073392;28;1231;-48
2022/07/26 10:24:53;;;;;;;;;;;;;;;31.66;36.15;94860.56;5073129;28;1308;-48
2022/07/26 10:27:39;;;;;;;;;;;;;;;31.70;36.24;94850.53;5073190;28;1947;-50
2022/07/26 10:30:23;;;;;;;;;;;;;;;31.78;36.63;94860.09;5073228;28;1028;-47
2022/07/26 10:32:50;;;;;;;;;;;;;;;31.84;36.11;94858.06;5073078;28;1009;-48
2022/07/26 10:35:48;;;;;;;;;;;;;;;31.87;36.41;94847.22;5072623;28;1914;-48
2022/07/26 10:38:24;;;;;;;;;;;;;;;31.98;36.45;94841.50;5018157;28;1434;-48
2022/07/26 10:41:05;;;;;;;;;;;;;;;32.01;36.37;94844.47;5073257;28;970;-48
2022/07/26 10:43:32;;;;;;;;;;;;;;;32.02;36.45;94842.53;5081985;28;1174;-48
2022/07/26 10:46:14;;;;;;;;;;;;;;;31.98;35.41;94836.78;5093214;28;1036;-48
2022/07/26 10:48:59;;;;;;;;;;;;;;;31.93;35.28;94834.13;5096336;28;1037;-48
2022/07/26 10:51:30;;;;;;;;;;;;;;;31.90;36.35;94835.53;5097427;28;974;-48
2022/07/26 10:54:00;;;;;;;;;;;;;;;31.96;35.71;94830.72;5097203;28;1044;-48
2022/07/26 10:56:27;;;;;;;;;;;;;;;31.93;35.88;94817.53;5097177;28;1995;-48
2022/07/26 10:58:54;;;;;;;;;;;;;;;32.01;36.64;94818.78;5097224;28;1070;-47
2022/07/26 11:01:20;;;;;;;;;;;;;;;32.06;35.66;94807.63;5097070;28;1037;-47
2022/07/26 11:03:46;;;;;;;;;;;;;;;32.12;36.85;94811.97;5096935;28;1017;-48
2022/07/26 11:06:13;;;;;;;;;;;;;;;32.19;36.83;94803.25;5096900;28;981;-48
2022/07/26 11:08:39;;;;;;;;;;;;;;;32.30;36.23;94796.38;5096816;28;973;-48
2022/07/26 11:11:05;;;;;;;;;;;;;;;32.33;36.29;94787.47;5096864;28;981;-48
2022/07/26 11:13:32;;;;;;;;;;;;;;;32.36;35.35;94788.78;5079028;28;1001;-48
2022/07/26 11:15:59;;;;;;;;;;;;;;;32.33;36.43;94781.09;5096934;28;1976;-48
2022/07/26 11:18:28;;;;;;;;;;;;;;;32.40;33.82;94779.56;5096896;28;1084;-48
2022/07/26 11:20:55;;;;;;;;;;;;;;;32.37;34.75;94771.09;5096673;28;1084;-48
2022/07/26 11:23:22;;;;;;;;;;;;;;;32.40;35.63;94759.38;5096663;28;1094;-48
2022/07/26 11:26:03;;;;;;;;;;;;;;;32.43;35.49;94764.31;5096813;28;1104;-48
2022/07/26 11:28:29;;;;;;;;;;;;;;;32.44;35.49;94754.88;5096788;28;996;-48
2022/07/26 11:30:56;;;;;;;;;;;;;;;32.47;35.85;94748.72;5096413;28;1048;-48
2022/07/26 11:33:35;;;;;;;;;;;;;;;32.57;34.00;94753.25;5078514;28;1028;-48
2022/07/26 11:36:02;;;;;;;;;;;;;;;32.51;34.26;94752.50;5095922;28;1975;-47
2022/07/26 11:38:44;;;;;;;;;;;;;;;32.48;33.20;94748.41;5096566;28;1119;-48
2022/07/26 11:41:10;;;;;;;;;;;;;;;32.55;33.38;94738.88;5096564;28;962;-48
2022/07/26 11:43:37;;;;;;;;;;;;;;;32.56;34.24;94741.34;5086419;28;1154;-48
2022/07/26 11:46:04;;;;;;;;;;;;;;;32.55;34.31;94734.16;5075894;28;1041;-48
2022/07/26 11:48:31;;;;;;;;;;;;;;;32.48;34.29;94734.59;5075981;28;1007;-48
2022/07/26 11:51:10;;;;;;;;;;;;;;;32.48;34.76;94728.25;5075759;28;1056;-48
2022/07/26 11:53:37;;;;;;;;;;;;;;;32.56;35.30;94724.72;5076189;28;1004;-48
2022/07/26 11:56:12;;;;;;;;;;;;;;;32.62;34.79;94726.28;5075728;28;1981;-50
2022/07/26 11:58:39;;;;;;;;;;;;;;;32.67;34.04;94728.13;5075296;28;1010;-49
2022/07/26 12:01:06;;;;;;;;;;;;;;;32.70;34.12;94724.72;5075364;28;1036;-49
2022/07/26 12:03:33;;;;;;;;;;;;;;;32.75;34.68;94721.03;5058222;28;977;-49
2022/07/26 12:06:00;;;;;;;;;;;;;;;32.74;34.28;94714.66;5075522;28;1012;-49
2022/07/26 12:08:37;;;;;;;;;;;;;;;32.78;34.27;94721.22;5075683;28;1064;-49
2022/07/26 12:11:03;;;;;;;;;;;;;;;32.88;33.31;94722.94;5075483;28;1046;-49
2022/07/26 12:13:29;;;;;;;;;;;;;;;33.12;33.55;94714.34;5075593;28;972;-49
2022/07/26 12:15:55;;;;;;;;;;;;;;;33.25;33.32;94713.44;5075268;28;1902;-49
2022/07/26 12:18:26;;;;;;;;;;;;;;;33.28;32.50;94711.19;5075624;28;954;-49
2022/07/26 12:21:00;;;;;;;;;;;;;;;33.23;32.70;94712.94;5075257;28;1300;-49
2022/07/26 12:23:38;;;;;;;;;;;;;;;33.25;32.46;94712.63;5075430;28;1076;-49
2022/07/26 12:26:17;;;;;;;;;;;;;;;33.33;32.52;94716.59;5075137;28;983;-50
2022/07/26 12:28:43;;;;;;;;;;;;;;;33.34;32.29;94709.94;5075252;28;1083;-49
2022/07/26 12:31:26;;;;;;;;;;;;;;;33.34;31.37;94715.47;5075165;28;1000;-49
2022/07/26 12:33:52;;;;;;;;;;;;;;;33.25;32.02;94705.13;5075303;28;1012;-50
2022/07/26 12:36:19;;;;;;;;;;;;;;;33.08;32.08;94702.22;5074654;28;1910;-49
2022/07/26 12:38:45;;;;;;;;;;;;;;;32.98;32.94;94706.06;5074957;28;1021;-49
2022/07/26 12:41:11;;;;;;;;;;;;;;;32.94;32.75;94696.75;5075030;28;965;-49
2022/07/26 12:43:37;;;;;;;;;;;;;;;32.96;32.94;94704.75;5084825;28;1167;-49
2022/07/26 12:46:04;;;;;;;;;;;;;;;32.88;33.42;94700.78;5094855;28;1037;-49
2022/07/26 12:48:30;;;;;;;;;;;;;;;32.91;32.92;94699.34;5095278;28;978;-49
2022/07/26 12:50:56;;;;;;;;;;;;;;;32.97;32.54;94689.75;5094978;28;1004;-49
2022/07/26 12:53:22;;;;;;;;;;;;;;;32.98;32.93;94691.41;5094949;28;985;-49
2022/07/26 12:55:48;;;;;;;;;;;;;;;32.97;31.86;94693.38;5095045;28;1983;-49
2022/07/26 12:58:14;;;;;;;;;;;;;;;33.00;33.36;94684.41;5095051;28;976;-49
2022/07/26 13:00:40;;;;;;;;;;;;;;;33.05;33.38;94698.16;5094689;28;1076;-49
2022/07/26 13:03:06;;;;;;;;;;;;;;;33.08;32.67;94685.59;5094832;28;962;-49
2022/07/26 13:05:32;;;;;;;;;;;;;;;33.08;33.68;94689.19;5094513;28;1099;-49